地図

経路データ

SID SEASON NUMBER BASIN SUBBASIN NAME ISO_TIME NATURE LAT LON WMO_WIND WMO_PRES WMO_AGENCY TRACK_TYPE DIST2LAND LANDFALL IFLAG USA_AGENCY USA_ATCF_ID USA_LAT USA_LON USA_RECORD USA_STATUS USA_WIND USA_PRES USA_SSHS USA_R34_NE USA_R34_SE USA_R34_SW USA_R34_NW USA_R50_NE USA_R50_SE USA_R50_SW USA_R50_NW USA_R64_NE USA_R64_SE USA_R64_SW USA_R64_NW USA_POCI USA_ROCI USA_RMW USA_EYE TOKYO_LAT TOKYO_LON TOKYO_GRADE TOKYO_WIND TOKYO_PRES TOKYO_R50_DIR TOKYO_R50_LONG TOKYO_R50_SHORT TOKYO_R30_DIR TOKYO_R30_LONG TOKYO_R30_SHORT TOKYO_LAND CMA_LAT CMA_LON CMA_CAT CMA_WIND CMA_PRES HKO_LAT HKO_LON HKO_CAT HKO_WIND HKO_PRES NEWDELHI_LAT NEWDELHI_LON NEWDELHI_GRADE NEWDELHI_WIND NEWDELHI_PRES NEWDELHI_CI NEWDELHI_DP NEWDELHI_POCI REUNION_LAT REUNION_LON REUNION_TYPE REUNION_WIND REUNION_PRES REUNION_TNUM REUNION_CI REUNION_RMW REUNION_R34_NE REUNION_R34_SE REUNION_R34_SW REUNION_R34_NW REUNION_R50_NE REUNION_R50_SE REUNION_R50_SW REUNION_R50_NW REUNION_R64_NE REUNION_R64_SE REUNION_R64_SW REUNION_R64_NW BOM_LAT BOM_LON BOM_TYPE BOM_WIND BOM_PRES BOM_TNUM BOM_CI BOM_RMW BOM_R34_NE BOM_R34_SE BOM_R34_SW BOM_R34_NW BOM_R50_NE BOM_R50_SE BOM_R50_SW BOM_R50_NW BOM_R64_NE BOM_R64_SE BOM_R64_SW BOM_R64_NW BOM_ROCI BOM_POCI BOM_EYE BOM_POS_METHOD BOM_PRES_METHOD NADI_LAT NADI_LON NADI_CAT NADI_WIND NADI_PRES WELLINGTON_LAT WELLINGTON_LON WELLINGTON_WIND WELLINGTON_PRES DS824_LAT DS824_LON DS824_STAGE DS824_WIND DS824_PRES TD9636_LAT TD9636_LON TD9636_STAGE TD9636_WIND TD9636_PRES TD9635_LAT TD9635_LON TD9635_WIND TD9635_PRES TD9635_ROCI NEUMANN_LAT NEUMANN_LON NEUMANN_CLASS NEUMANN_WIND NEUMANN_PRES MLC_LAT MLC_LON MLC_CLASS MLC_WIND MLC_PRES USA_GUST BOM_GUST BOM_GUST_PER REUNION_GUST REUNION_GUST_PER USA_SEAHGT USA_SEARAD_NE USA_SEARAD_SE USA_SEARAD_SW USA_SEARAD_NW STORM_SPEED STORM_DIR
2018082S12164 2018 17 SP MM IRIS 2018-03-22 18:00:00 DS -12.3000 164.000 main 250 250 O_____________ jtwc_sh SH172018 -12.3000 164.000 LO 25 1004 -3 1005 160 60 7 225
2018082S12164 2018 17 SP MM IRIS 2018-03-22 21:00:00 DS -12.5426 163.755 main 250 250 P_____________ SH172018 -12.5426 163.755 LO 25 1004 -3 1005 155 60 7 224
2018082S12164 2018 17 SP MM IRIS 2018-03-23 00:00:00 DS -12.8000 163.500 main 259 259 O_____________ jtwc_sh SH172018 -12.8000 163.500 LO 25 1004 -3 1005 150 60 7 224
2018082S12164 2018 17 SP MM IRIS 2018-03-23 03:00:00 DS -13.0724 163.223 main 275 271 P_____________ SH172018 -13.0724 163.223 LO 25 1004 -3 1005 165 55 8 229
2018082S12164 2018 17 SP MM IRIS 2018-03-23 06:00:00 TS -13.3000 162.900 main 287 285 O_____________ jtwc_sh SH172018 -13.3000 162.900 TD 25 1004 -1 1005 180 50 8 243
2018082S12164 2018 17 SP MM IRIS 2018-03-23 09:00:00 TS -13.4150 162.522 main 291 291 P_____________ SH172018 -13.4150 162.522 TD 25 1004 -1 1005 180 50 7 254
2018082S12164 2018 17 SP MM IRIS 2018-03-23 12:00:00 TS -13.5000 162.160 25 999 nadi main 302 302 O_____________ jtwc_sh SH172018 -13.5000 162.100 TD 25 1004 -1 1005 180 50 -13.5000 162.400 -1 25 999 8 253
2018082S12164 2018 17 SP MM IRIS 2018-03-23 15:00:00 TS -13.6452 161.745 main 313 313 P______I______ SH172018 -13.6425 161.643 TD 27 1003 -1 1004 172 50 -13.6504 161.950 32 996 9 250
2018082S12164 2018 17 SP MM IRIS 2018-03-23 18:00:00 TS -13.8000 161.329 40 993 nadi main 340 340 O_____________ jtwc_sh SH172018 -13.8000 161.200 TD 30 1002 -1 1004 165 50 -13.8000 161.500 40 993 9 250
2018082S12164 2018 17 SP MM IRIS 2018-03-23 21:00:00 TS -13.9501 160.885 main 371 371 P______I______ SH172018 -13.9499 160.827 TD 30 1002 -1 1005 160 50 -13.9505 161.000 37 994 9 250
2018082S12164 2018 17 SP MM IRIS 2018-03-24 00:00:00 TS -14.1000 160.500 35 995 nadi main 395 395 O_____________ jtwc_sh SH172018 -14.1000 160.500 TD 30 1002 -1 1006 155 50 -14.1000 160.500 35 995 8 245
2018082S12164 2018 17 SP MM IRIS 2018-03-24 03:00:00 TS -14.2650 160.185 main 428 428 P_____________ SH172018 -14.2650 160.185 TD 30 1002 -1 1006 155 50 7 243
2018082S12164 2018 17 SP EA IRIS 2018-03-24 06:00:00 TS -14.4000 159.900 main 452 452 O_____________ jtwc_sh SH172018 -14.4000 159.900 TD 30 1002 -1 1006 155 50 6 249
2018082S12164 2018 17 SP EA IRIS 2018-03-24 09:00:00 TS -14.4649 159.650 main 478 478 P_____________ SH172018 -14.4649 159.650 TD 30 1001 -1 1006 155 50 5 258
2018082S12164 2018 17 SP EA IRIS 2018-03-24 12:00:00 TS -14.5000 159.400 main 489 489 O_____________ jtwc_sh SH172018 -14.5000 159.400 TD 30 1000 -1 1006 155 50 6 260
2018082S12164 2018 17 SP EA IRIS 2018-03-24 15:00:00 TS -14.5651 159.048 main 522 522 P_____________ SH172018 -14.5651 159.048 TD 30 1000 -1 1006 155 50 6 260
2018082S12164 2018 17 SP EA IRIS 2018-03-24 18:00:00 TS -14.6000 158.800 main 535 520 O_____________ jtwc_sh SH172018 -14.6000 158.800 TD 30 1000 -1 1006 155 50 2 282
2018082S12164 2018 17 SP EA IRIS 2018-03-24 21:00:00 TS -14.5275 158.863 main 520 513 P_____________ SH172018 -14.5275 158.863 TD 30 1000 -1 1006 155 50 2 63
2018082S12164 2018 17 SP EA IRIS 2018-03-25 00:00:00 TS -14.5000 159.000 main 513 513 O_____________ jtwc_sh SH172018 -14.5000 159.000 TD 30 1000 -1 1006 155 50 2 131
2018082S12164 2018 17 SP EA IRIS 2018-03-25 03:00:00 TS -14.6474 159.002 main 522 522 P_____________ SH172018 -14.6474 159.002 TD 30 1000 -1 1006 207 50 4 193
2018082S12164 2018 17 SP EA IRIS 2018-03-25 06:00:00 TS -14.9000 158.900 main 556 556 O_____________ jtwc_sh SH172018 -14.9000 158.900 TD 30 1000 -1 1007 260 50 6 212
2018082S12164 2018 17 SP EA IRIS 2018-03-25 09:00:00 TS -15.1851 158.650 main 596 596 P_____________ SH172018 -15.1851 158.650 TD 30 1000 -1 1007 260 50 8 219
2018082S12164 2018 17 SP EA IRIS 2018-03-25 12:00:00 TS -15.5000 158.400 main 642 642 O_____________ jtwc_sh SH172018 -15.5000 158.400 TD 30 1000 -1 1007 260 50 7 206
2018082S12164 2018 17 SP EA IRIS 2018-03-25 15:00:00 TS -15.8149 158.327 main 675 675 P_____________ SH172018 -15.8149 158.327 TD 30 1000 -1 1006 255 50 6 189
2018082S12164 2018 17 SP EA IRIS 2018-03-25 18:00:00 TS -16.1000 158.300 main 703 703 O_____________ jtwc_sh SH172018 -16.1000 158.300 TD 30 1000 -1 1005 250 50 5 195
2018082S12164 2018 17 SP EA IRIS 2018-03-25 21:00:00 TS -16.2925 158.200 main 728 728 P_____________ SH172018 -16.2925 158.200 TD 30 1000 -1 1005 247 50 4 206
2018082S12164 2018 17 SP EA IRIS 2018-03-26 00:00:00 TS -16.5000 158.100 main 753 741 O_____________ jtwc_sh SH172018 -16.5000 158.100 TD 30 1000 -1 1006 245 50 6 196
2018082S12164 2018 17 SP EA IRIS 2018-03-26 03:00:00 TS -16.8350 158.035 main 743 720 P_____________ SH172018 -16.8350 158.035 TD 30 1000 -1 1006 235 50 7 188
2018082S12164 2018 17 SP EA IRIS 2018-03-26 06:00:00 TS -17.2000 158.000 main 720 704 O_____________ jtwc_sh SH172018 -17.2000 158.000 TD 30 1000 -1 1006 225 50 7 184
2018082S12164 2018 17 SP EA IRIS 2018-03-26 09:00:00 TS -17.5075 157.992 main 704 689 P_____________ SH172018 -17.5075 157.992 TD 30 1000 -1 1006 225 50 6 179
2018082S12164 2018 17 SP EA IRIS 2018-03-26 12:00:00 TS -17.8000 158.000 main 689 676 O_____________ jtwc_sh SH172018 -17.8000 158.000 TD 30 1000 -1 1006 225 50 6 177
2018082S12164 2018 17 SP EA IRIS 2018-03-26 15:00:00 TS -18.0775 158.000 main 676 664 P_____________ SH172018 -18.0775 158.000 TD 27 1002 -1 1006 230 50 6 179
2018082S12164 2018 17 SP EA IRIS 2018-03-26 18:00:00 TS -18.4000 158.000 main 664 650 O_____________ jtwc_sh SH172018 -18.4000 158.000 TD 25 1004 -1 1006 235 50 8 0
2018082S12164 2018 17 SP EA IRIS 2018-03-26 21:00:00 TS -18.8275 157.978 main 650 637 P_____________ SH172018 -18.8275 157.978 TD 25 1004 -1 1006 210 50 9 0
2018082S12164 2018 17 SP EA IRIS 2018-03-27 00:00:00 TS -19.3000 158.000 main 637 618 O_____________ jtwc_sh SH172018 -19.3000 158.000 TD 25 1004 -1 1006 185 50 10 171
2018082S12164 2018 17 SP EA IRIS 2018-03-27 03:00:00 TS -19.7950 158.142 main 618 594 P_____________ SH172018 -19.7950 158.142 TD 25 1004 -1 1006 185 50 9 163
2018082S12164 2018 17 SP EA IRIS 2018-03-27 06:00:00 TS -20.2000 158.300 main 594 594 O_____________ jtwc_sh SH172018 -20.2000 158.300 TD 25 1004 -1 1006 185 50 6 162
2018082S12164 2018 17 SP EA IRIS 2018-03-27 09:00:00 TS -20.3424 158.335 main 594 583 P_____________ SH172018 -20.3424 158.335 TD 25 1003 -1 1006 185 50 3 163
2018082S12164 2018 17 SP EA IRIS 2018-03-27 12:00:00 TS -20.5000 158.400 main 583 564 O_____________ jtwc_sh SH172018 -20.5000 158.400 TD 25 1002 -1 1006 185 50 7 156
2018082S12164 2018 17 SP EA IRIS 2018-03-27 15:00:00 TS -20.9476 158.627 main 565 543 P_____________ SH172018 -20.9476 158.627 TD 25 1002 -1 1006 192 50 11 155
2018082S12164 2018 17 SP EA IRIS 2018-03-27 18:00:00 TS -21.5000 158.900 main 546 538 O_____________ jtwc_sh SH172018 -21.5000 158.900 TD 25 1002 -1 1006 200 50 12 157
2018082S12164 2018 17 SP EA IRIS 2018-03-27 21:00:00 TS -22.0600 159.137 main 546 536 P_____________ SH172018 -22.0600 159.137 TD 25 1003 -1 1006 200 50 11 160
2018082S12164 2018 17 SP EA IRIS 2018-03-28 00:00:00 TS -22.5000 159.300 main 545 545 O_____________ jtwc_sh SH172018 -22.5000 159.300 TD 25 1004 -1 1006 200 50 7 163
2018082S12164 2018 17 SP EA IRIS 2018-03-28 03:00:00 TS -22.6824 159.338 main 555 555 P_____________ SH172018 -22.6824 159.338 TD 25 1004 -1 1005 210 50 2 172
2018082S12164 2018 17 SP EA IRIS 2018-03-28 06:00:00 TS -22.7000 159.300 main 555 555 O_____________ jtwc_sh SH172018 -22.7000 159.300 TD 25 1004 -1 1005 220 50 0 0
2018082S12164 2018 17 SP EA IRIS 2018-03-28 09:00:00 TS -22.6722 159.333 main 555 550 P_____________ SH172018 -22.6722 159.333 TD 27 1002 -1 1005 222 50 1 320
2018082S12164 2018 17 SP EA IRIS 2018-03-28 12:00:00 TS -22.6000 159.200 main 559 559 O_____________ jtwc_sh SH172018 -22.6000 159.200 TD 30 1000 -1 1005 225 50 5 283
2018082S12164 2018 17 SP EA IRIS 2018-03-28 15:00:00 TS -22.5573 158.770 main 596 552 P_____________ SH172018 -22.5573 158.770 TD 32 998 -1 1005 237 60 10 276
2018082S12164 2018 17 SP EA IRIS 2018-03-28 18:00:00 TS -22.5000 158.100 main 552 481 O_____________ jtwc_sh SH172018 -22.5000 158.100 TS 35 996 0 60 120 90 60 1005 250 70 14 273
2018082S12164 2018 17 SP EA IRIS 2018-03-28 21:00:00 TS -22.4889 157.282 main 481 421 P_____________ SH172018 -22.4889 157.282 TS 37 994 0 60 120 90 60 1005 250 70 16 277
2018082S12164 2018 17 SP EA IRIS 2018-03-29 00:00:00 SS -22.3000 156.400 main 421 401 O_____________ jtwc_sh SH172018 -22.3000 156.400 SS 40 993 -2 60 120 90 60 1005 250 70 17 294
2018082S12164 2018 17 SP EA IRIS 2018-03-29 03:00:00 SS -21.8000 155.600 main 409 409 O_____________ jtwc_sh SH172018 -21.8000 155.600 SS 40 993 -2 60 120 90 60 1005 250 70 16 327
2018082S12164 2018 17 SP EA IRIS 2018-03-29 06:00:00 SS -21.0000 155.500 main 480 480 O_____________ jtwc_sh SH172018 -21.0000 155.500 SS 35 998 -2 80 120 120 120 1005 250 70 14 0
2018082S12164 2018 17 SP EA IRIS 2018-03-29 09:00:00 SS -20.4443 155.574 main 545 545 P_____________ SH172018 -20.4443 155.574 SS 32 999 -2 1005 250 60 9 6
2018082S12164 2018 17 SP EA IRIS 2018-03-29 12:00:00 SS -20.1000 155.600 main 564 549 O_____________ jtwc_sh SH172018 -20.1000 155.600 SD 30 1000 -2 1005 250 50 6 337
2018082S12164 2018 17 SP EA IRIS 2018-03-29 15:00:00 SS -19.8701 155.317 main 549 528 P_____________ SH172018 -19.8701 155.317 SD 30 1000 -2 1004 250 50 8 301
2018082S12164 2018 17 SP EA IRIS 2018-03-29 18:00:00 SS -19.7000 154.900 main 528 509 O_____________ jtwc_sh SH172018 -19.7000 154.900 SD 30 1000 -2 1004 250 50 9 296
2018082S12164 2018 17 SP EA IRIS 2018-03-29 21:00:00 SS -19.4801 154.485 main 509 502 P_____________ SH172018 -19.4801 154.485 SD 30 1000 -2 1004 225 50 9 304
2018082S12164 2018 17 SP EA IRIS 2018-03-30 00:00:00 SS -19.2000 154.100 main 502 502 O_____________ jtwc_sh SH172018 -19.2000 154.100 SD 30 1000 -2 1004 200 50 9 317
2018082S12164 2018 17 SP EA IRIS 2018-03-30 03:00:00 SS -18.8298 153.843 main 515 515 P_____________ SH172018 -18.8298 153.843 SD 30 1000 -2 1004 200 50 9 329
2018082S12164 2018 17 SP EA IRIS 2018-03-30 06:00:00 SS -18.4000 153.600 main 539 538 O_____________ jtwc_sh SH172018 -18.4000 153.600 SD 30 1000 -2 1004 200 50 10 330
2018082S12164 2018 17 SP EA IRIS 2018-03-30 09:00:00 SS -17.9423 153.295 main 543 533 P_____________ SH172018 -17.9423 153.295 SD 30 999 -2 1003 200 50 11 324
2018082S12164 2018 17 SP EA IRIS 2018-03-30 12:00:00 SS -17.5000 152.900 main 533 513 O_____________ jtwc_sh SH172018 -17.5000 152.900 SD 30 998 -2 1002 200 50 12 312
2018082S12164 2018 17 SP EA IRIS 2018-03-30 15:00:00 SS -17.1352 152.365 main 521 501 P_____________ SH172018 -17.1352 152.365 SD 30 999 -2 1003 212 50 13 304
2018082S12164 2018 17 SP EA IRIS 2018-03-30 18:00:00 TS -16.8000 151.800 main 503 496 O_____________ jtwc_sh SH172018 -16.8000 151.800 TD 30 1000 -1 1004 225 50 12 305
2018082S12164 2018 17 SP EA IRIS 2018-03-30 21:00:00 TS -16.4349 151.320 main 509 504 P_____________ SH172018 -16.4349 151.320 TD 27 1002 -1 1005 227 50 11 309
2018082S12164 2018 17 SP EA IRIS 2018-03-31 00:00:00 TS -16.1000 150.900 main 515 501 O_____________ jtwc_sh SH172018 -16.1000 150.900 TD 25 1004 -1 1006 230 50 10 308
2018082S12164 2018 17 SP EA IRIS 2018-03-31 03:00:00 TS -15.8275 150.513 main 501 481 P_____________ SH172018 -15.8275 150.513 TD 25 1004 -1 1005 230 55 8 307
2018082S12164 2018 17 SP EA IRIS 2018-03-31 06:00:00 TS -15.6000 150.200 main 481 472 O_____________ jtwc_sh SH172018 -15.6000 150.200 TD 25 1004 -1 1005 230 60 7 312
2018082S12164 2018 17 SP EA IRIS 2018-03-31 09:00:00 TS -15.3774 149.985 main 472 462 P_____________ SH172018 -15.3774 149.985 TD 25 1004 -1 1004 220 52 6 316
2018082S12164 2018 17 SP EA IRIS 2018-03-31 12:00:00 TS -15.2000 149.800 main 462 449 O_____________ jtwc_sh SH172018 -15.2000 149.800 TD 25 1004 -1 1003 210 45 5 308
2018082S12164 2018 17 SP EA IRIS 2018-03-31 15:00:00 TS -15.0550 149.550 main 449 420 P_____________ SH172018 -15.0550 149.550 TD 25 1004 -1 1003 222 45 5 292
2018082S12164 2018 17 SP EA IRIS 2018-03-31 18:00:00 TS -15.0000 149.300 main 420 397 O_____________ jtwc_sh SH172018 -15.0000 149.300 TD 25 1004 -1 1004 235 45 5 268
2018082S12164 2018 17 SP EA IRIS 2018-03-31 21:00:00 TS -15.0700 149.055 main 397 375 P_____________ SH172018 -15.0700 149.055 TD 25 1004 -1 1003 205 42 4 243
2018082S12164 2018 17 SP EA IRIS 2018-04-01 00:00:00 TS -15.2000 148.900 main 375 372 O_____________ jtwc_sh SH172018 -15.2000 148.900 TD 25 1004 -1 1003 175 40 2 209
2018082S12164 2018 17 SP EA IRIS 2018-04-01 03:00:00 TS -15.2591 148.947 main 372 372 P_____________ SH172018 -15.2591 148.947 TD 25 1004 -1 1003 175 40 2 153
2018082S12164 2018 17 SP EA IRIS 2018-04-01 06:00:00 TS -15.4000 149.000 main 376 351 O_____________ jtwc_sh SH172018 -15.4000 149.000 TD 25 1004 -1 1003 175 40 4 185
2018082S12164 2018 17 SP EA IRIS 2018-04-01 09:00:00 TS -15.7000 148.900 main 351 313 O_____________ jtwc_sh SH172018 -15.7000 148.900 TD 25 1004 -1 1003 175 40 6 218
2018082S12164 2018 17 SP EA IRIS 2018-04-01 12:00:00 TS -15.9000 148.600 main 313 279 O_____________ jtwc_sh SH172018 -15.9000 148.600 TD 30 998 -1 1003 175 40 8 222
2018082S12164 2018 17 SP EA IRIS 2018-04-01 15:00:00 TS -16.2534 148.379 main 274 250 P_____________ SH172018 -16.2534 148.379 TD 32 997 -1 1003 172 45 8 202
2018082S12164 2018 17 SP EA IRIS 2018-04-01 18:00:00 TS -16.6000 148.300 main 250 246 O_____________ jtwc_sh SH172018 -16.6000 148.300 TS 35 996 0 40 70 70 50 1004 170 50 5 175
2018082S12164 2018 17 SP EA IRIS 2018-04-01 21:00:00 TS -16.7375 148.412 main 256 253 P_____________ SH172018 -16.7375 148.412 TS 35 998 0 45 75 75 65 1005 180 55 4 125
2018082S12164 2018 17 SP EA IRIS 2018-04-02 00:00:00 TS -16.8000 148.600 main 274 274 O_____________ jtwc_sh SH172018 -16.8000 148.600 TS 35 1000 0 50 80 80 80 1006 190 60 3 121
2018082S12164 2018 17 SP EA IRIS 2018-04-02 03:00:00 TS -16.9150 148.715 main 281 281 P_____________ SH172018 -16.9150 148.715 TS 37 997 0 55 85 85 80 1004 190 60 3 136
2018082S12164 2018 17 SP EA IRIS 2018-04-02 06:00:00 TS -17.0000 148.800 main 290 290 O_____________ jtwc_sh SH172018 -17.0000 148.800 TS 40 995 0 60 90 90 80 1003 190 60 2 127
2018082S12164 2018 17 SP EA IRIS 2018-04-02 09:00:00 TS -17.0225 148.865 main 300 300 P_____________ SH172018 -17.0225 148.865 TS 40 995 0 60 100 100 80 1004 190 60 1 90
2018082S12164 2018 17 SP EA IRIS 2018-04-02 12:00:00 TS -17.0000 148.900 main 300 300 O_____________ jtwc_sh SH172018 -17.0000 148.900 TS 40 996 0 60 110 110 80 1005 190 60 1 25
2018082S12164 2018 17 SP EA IRIS 2018-04-02 15:00:00 TS -16.9425 148.900 main 302 302 P_____________ SH172018 -16.9425 148.900 TS 42 994 0 65 115 110 80 1005 195 57 1 0
2018082S12164 2018 17 SP EA IRIS 2018-04-02 18:00:00 TS -16.9000 148.900 main 302 302 O_____________ jtwc_sh SH172018 -16.9000 148.900 TS 45 993 0 70 120 110 80 1005 200 55 1 10
2018082S12164 2018 17 SP EA IRIS 2018-04-02 21:00:00 TS -16.8749 148.905 main 302 302 P_____________ SH172018 -16.8749 148.905 TS 45 993 0 70 120 110 80 1005 205 55 1 137
2018082S12164 2018 17 SP EA IRIS 2018-04-03 00:00:00 TS -17.0000 149.000 main 311 293 O_____________ jtwc_sh SH172018 -17.0000 149.000 TS 45 993 0 70 120 110 80 1006 210 55 7 146
2018082S12164 2018 17 SP EA IRIS 2018-04-03 03:00:00 TS -17.4127 149.285 main 300 271 P_____________ SH172018 -17.4127 149.285 TS 45 993 0 70 120 110 80 1006 215 55 11 148
2018082S12164 2018 17 SP EA IRIS 2018-04-03 06:00:00 TS -17.9000 149.600 main 271 249 O_____________ jtwc_sh SH172018 -17.9000 149.600 TS 45 994 0 70 120 110 80 1006 220 55 9 151
2018082S12164 2018 17 SP EA IRIS 2018-04-03 09:00:00 TS -18.2299 149.765 main 255 232 P_____________ SH172018 -18.2299 149.765 TS 47 993 0 70 120 110 85 1006 215 55 7 155
2018082S12164 2018 17 SP EA IRIS 2018-04-03 12:00:00 TS -18.5000 149.900 main 232 216 O_____________ jtwc_sh SH172018 -18.5000 149.900 TS 50 993 0 70 120 110 90 29 61 55 42 1006 210 55 6 150
2018082S12164 2018 17 SP EA IRIS 2018-04-03 15:00:00 TS -18.7875 150.107 main 216 214 P_____________ SH172018 -18.7875 150.107 TS 52 990 0 75 120 115 90 32 61 58 42 1004 200 45 6 143
2018082S12164 2018 17 SP EA IRIS 2018-04-03 18:00:00 TS -19.0000 150.300 main 214 206 O_____________ jtwc_sh SH172018 -19.0000 150.300 TS 55 988 0 80 120 120 90 36 61 61 42 1003 190 35 4 137
2018082S12164 2018 17 SP EA IRIS 2018-04-03 21:00:00 TS -19.0799 150.393 main 214 214 P_____________ SH172018 -19.0799 150.393 TS 55 987 0 85 125 125 90 39 64 64 42 1004 185 37 2 118
2018082S12164 2018 17 SP EA IRIS 2018-04-04 00:00:00 TS -19.1000 150.500 main 222 222 O_____________ jtwc_sh SH172018 -19.1000 150.500 TS 55 987 0 90 130 130 90 42 68 68 42 1005 180 40 3 103
2018082S12164 2018 17 SP EA IRIS 2018-04-04 03:00:00 TS -19.1500 150.728 main 233 233 P_____________ SH172018 -19.1500 150.728 TS 52 988 0 90 130 130 90 42 67 67 42 1005 197 40 5 102
2018082S12164 2018 17 SP EA IRIS 2018-04-04 06:00:00 TS -19.2000 151.000 main 261 261 O_____________ jtwc_sh SH172018 -19.2000 151.000 TS 50 990 0 90 130 130 90 42 67 67 42 1006 215 40 5 101
2018082S12164 2018 17 SP EA IRIS 2018-04-04 09:00:00 TS -19.2500 151.250 main 289 284 P_____________ SH172018 -19.2500 151.250 TS 47 991 0 90 140 135 90 1006 215 40 5 102
2018082S12164 2018 17 SP EA IRIS 2018-04-04 12:00:00 TS -19.3000 151.500 main 303 303 O_____________ jtwc_sh SH172018 -19.3000 151.500 TS 45 993 0 90 150 140 90 1006 215 40 5 102
2018082S12164 2018 17 SP EA IRIS 2018-04-04 15:00:00 TS -19.3500 151.758 main 331 327 P_____________ SH172018 -19.3500 151.758 TS 45 992 0 90 150 140 90 1004 212 40 5 102
2018082S12164 2018 17 SP EA IRIS 2018-04-04 18:00:00 TS -19.4000 152.000 main 346 346 O_____________ jtwc_sh SH172018 -19.4000 152.000 TS 45 992 0 90 150 140 90 1003 210 40 4 101
2018082S12164 2018 17 SP EA IRIS 2018-04-04 21:00:00 TS -19.4349 152.208 main 366 364 P_____________ SH172018 -19.4349 152.208 TS 42 994 0 85 145 130 85 1003 200 45 4 105
2018082S12164 2018 17 SP EA IRIS 2018-04-05 00:00:00 TS -19.5000 152.400 main 369 364 O_____________ jtwc_sh SH172018 -19.5000 152.400 TS 40 996 0 80 140 120 80 1004 190 50 4 116
2018082S12164 2018 17 SP EA IRIS 2018-04-05 03:00:00 TS -19.6125 152.593 main 370 360 P_____________ SH172018 -19.6125 152.593 TS 40 995 0 75 140 120 75 1004 190 50 5 129
2018082S12164 2018 17 SP EA IRIS 2018-04-05 06:00:00 TS -19.8000 152.800 main 363 350 O_____________ jtwc_sh SH172018 -19.8000 152.800 TS 40 995 0 70 140 120 70 1004 190 50 7 140
2018082S12164 2018 17 SP EA IRIS 2018-04-05 09:00:00 TS -20.1601 153.087 main 349 349 P_____________ SH172018 -20.1601 153.087 TS 40 994 0 65 155 135 65 1004 190 50 8 142
2018082S12164 2018 17 SP EA IRIS 2018-04-05 12:00:00 TS -20.4000 153.300 main 349 349 O_____________ jtwc_sh SH172018 -20.4000 153.300 TS 40 993 0 60 170 150 60 1005 190 50 2 113
2018082S12164 2018 17 SP EA IRIS 2018-04-05 15:00:00 TS -20.2249 153.250 main 357 357 P_____________ SH172018 -20.2249 153.250 TS 40 993 0 60 170 145 60 1004 202 50 5 349
2018082S12164 2018 17 SP EA IRIS 2018-04-05 18:00:00 TS -19.9000 153.200 main 381 381 O_____________ jtwc_sh SH172018 -19.9000 153.200 TS 40 993 0 60 170 140 60 1004 215 50 6 17
2018082S12164 2018 17 SP EA IRIS 2018-04-05 21:00:00 TS -19.6777 153.435 main 411 411 P_____________ SH172018 -19.6777 153.435 TS 40 993 0 60 150 115 60 1004 197 50 6 50
2018082S12164 2018 17 SP EA IRIS 2018-04-06 00:00:00 TS -19.5000 153.700 main 449 449 O_____________ jtwc_sh SH172018 -19.5000 153.700 TS 40 993 0 60 130 90 60 1005 180 50 5 53
2018082S12164 2018 17 SP EA IRIS 2018-04-06 03:00:00 TS -19.3999 153.825 main 464 464 P_____________ SH172018 -19.3999 153.825 TS 37 994 0 60 110 90 60 1005 187 50 2 27
2018082S12164 2018 17 SP EA IRIS 2018-04-06 06:00:00 TS -19.3000 153.800 main 473 466 O_____________ jtwc_sh SH172018 -19.3000 153.800 TS 35 996 0 60 90 90 60 1005 195 50 50 4 319
2018082S12164 2018 17 SP EA IRIS 2018-04-06 09:00:00 TS -19.1301 153.572 main 476 470 P_____________ SH172018 -19.1301 153.572 TS 32 998 -1 1006 195 50 6 310
2018082S12164 2018 17 SP EA IRIS 2018-04-06 12:00:00 TS -18.9000 153.300 main 475 475 O_____________ jtwc_sh SH172018 -18.9000 153.300 TD 30 1000 -1 1007 195 50 6 323
2018082S12164 2018 17 SP EA IRIS 2018-04-06 15:00:00 TS -18.6150 153.163 main 498 488 P_____________ SH172018 -18.6150 153.163 TD 27 1002 -1 1007 195 50 6 342
2018082S12164 2018 17 SP EA IRIS 2018-04-06 18:00:00 TS -18.3000 153.100 main 503 503 O_____________ jtwc_sh SH172018 -18.3000 153.100 TD 25 1004 -1 1007 195 50 6 353
2018082S12164 2018 17 SP EA IRIS 2018-04-06 21:00:00 TS -18.0000 153.085 main 519 519 P_____________ SH172018 -18.0000 153.085 TD 22 1005 -1 1007 195 50 6 1
2018082S12164 2018 17 SP EA IRIS 2018-04-07 00:00:00 NR -17.7000 153.100 main 537 537 O_____________ jtwc_sh SH172018 -17.7000 153.100 DB 20 1007 -3 1007 195 50 6 358
2018082S12164 2018 17 SP EA IRIS 2018-04-07 03:00:00 NR -17.3925 153.077 main 556 556 P_____________ SH172018 -17.3925 153.077 DB 20 1006 -3 1007 182 50 6 1
2018082S12164 2018 17 SP EA IRIS 2018-04-07 06:00:00 NR -17.1000 153.100 main 577 577 O_____________ jtwc_sh SH172018 -17.1000 153.100 DB 20 1006 -3 1007 170 50 6 15
2018082S12164 2018 17 SP EA IRIS 2018-04-07 09:00:00 NR -16.8350 153.228 main 606 606 P_____________ SH172018 -16.8350 153.228 DB 20 1006 -3 1007 165 50 6 30
2018082S12164 2018 17 SP EA IRIS 2018-04-07 12:00:00 NR -16.6000 153.400 main 637 637 O_____________ jtwc_sh SH172018 -16.6000 153.400 DB 20 1007 -3 1007 160 50 6 34
2018082S12164 2018 17 SP EA IRIS 2018-04-07 15:00:00 NR -16.3700 153.558 main 668 668 P_____________ SH172018 -16.3700 153.558 DB 20 1007 -3 1007 155 50 5 36
2018082S12164 2018 17 SP EA IRIS 2018-04-07 18:00:00 NR -16.2000 153.700 main 691 691 O_____________ jtwc_sh SH172018 -16.2000 153.700 DB 20 1007 -3 1008 150 50 3 48
2018082S12164 2018 17 SP EA IRIS 2018-04-07 21:00:00 NR -16.1500 153.807 main 701 701 P_____________ SH172018 -16.1500 153.807 DB 20 1007 -3 1008 150 50 2 63
2018082S12164 2018 17 SP EA IRIS 2018-04-08 00:00:00 NR -16.1000 153.900 main 706 696 O_____________ jtwc_sh SH172018 -16.1000 153.900 DB 20 1007 -3 1008 150 50 3 43
2018082S12164 2018 17 SP EA IRIS 2018-04-08 03:00:00 NR -15.9450 154.008 main 692 679 P_____________ SH172018 -15.9450 154.008 DB 20 1007 -3 1008 150 50 4 26
2018082S12164 2018 17 SP EA IRIS 2018-04-08 06:00:00 NR -15.7000 154.100 main 679 657 O_____________ jtwc_sh SH172018 -15.7000 154.100 DB 20 1007 -3 1008 150 50 6 14
2018082S12164 2018 17 SP EA IRIS 2018-04-08 09:00:00 NR -15.3725 154.160 main 657 621 P_____________ SH172018 -15.3725 154.160 DB 20 1007 -3 1008 150 50 7 8
2018082S12164 2018 17 SP EA IRIS 2018-04-08 12:00:00 NR -15.0000 154.200 main 621 O_____________ jtwc_sh SH172018 -15.0000 154.200 DB 20 1007 -3 1008 150 50 8 7

デジタル台風データ・検索

IBTrACS Databaseについて

本データベースは、米国NOAAが公開する1842年以降の世界の熱帯低気圧のベストトラックデータアーカイブInternational Best Track Archive for Climate Stewardship (IBTrACS)を、ウェブで閲覧しやすい形式に変換したものです。

最終更新日:2022-08-12